Friday, January 19, 2018, 2:33 AM EST
Back to Local

KBGR, Bangor Int'l Airport

Location: Bangor, ME, United States Lat: 44.8
Local Time: 2:33 AM EST ( 7:33 GMT) Lon: -68.817
Time Zone: US/Eastern Elev: 193 ft

Show me the last for .
Show Decoded

2018-01-19 01:53 METAR KBGR 190653Z 28004KT 10SM SCT029 SCT150 M12/M14 A2986 RMK AO2 SLP118 I1000
                 T11221139 =
2018-01-19 00:53 METAR KBGR 190553Z 00000KT 10SM SCT029 SCT150 M10/M12 A2986 RMK AO2 SLP115 4/006
                 T11001117 11050 21111 58005 =
2018-01-19 00:31 METAR KBGR 190531Z 00000KT 10SM SCT029 M11/M12 A2985 RMK AO2 T11061117 =
2018-01-18 23:53 METAR KBGR 190453Z 32004KT 10SM OVC029 M06/M09 A2987 RMK AO2 SLP118 T10611089
                 410171167 =
2018-01-18 22:53 METAR KBGR 190353Z 30006KT 10SM OVC028 M06/M09 A2987 RMK AO2 SLP120 T10561089 =
2018-01-18 21:53 METAR KBGR 190253Z 31006KT 10SM CLR M06/M09 A2987 RMK AO2 SLP120 T10611094 50007
                 =
2018-01-18 20:53 METAR KBGR 190153Z 29006KT 10SM CLR M06/M09 A2988 RMK AO2 SLP121 T10611094 =
2018-01-18 19:53 METAR KBGR 190053Z 28005KT 10SM CLR M06/M09 A2987 RMK AO2 SLP121 T10561094 =
2018-01-18 18:53 METAR KBGR 182353Z 30005KT 10SM CLR M05/M09 A2985 RMK AO2 SLP113 4/006 T10501094
                 11017 21083 53014 =
2018-01-18 17:53 METAR KBGR 182253Z 32007KT 10SM CLR M06/M09 A2984 RMK AO2 SLP108 T10561094 =
2018-01-18 16:53 METAR KBGR 182153Z 00000KT 10SM FEW035 M06/M09 A2982 RMK AO2 SLP104 T10611089 =
2018-01-18 15:53 METAR KBGR 182053Z 29006KT 10SM FEW035 M03/M08 A2981 RMK AO2 SLP099 T10281078
                 56009 =
2018-01-18 14:53 METAR KBGR 181953Z 28005KT 10SM SCT035 M02/M08 A2982 RMK AO2 SLP103 T10221083 =
2018-01-18 13:53 METAR KBGR 181853Z VRB05KT 10SM FEW035 FEW050 M02/M08 A2982 RMK AO2 SLP102
                 T10221083 =
2018-01-18 12:53 METAR KBGR 181753Z 26006KT 10SM FEW045 M03/M09 A2984 RMK AO2 SLP107 4/006 I6000
                 T10281089 11028 21144 58032 =
2018-01-18 11:53 METAR KBGR 181653Z COR 30007KT 10SM FEW045 M03/M09 A2987 RMK AO2 SLP119
                 T10331094 =
2018-01-18 10:53 METAR KBGR 181553Z 27006KT 10SM FEW045 M06/M09 A2991 RMK AO2 SLP133 T10561094 =
2018-01-18 09:53 METAR KBGR 181453Z 00000KT 10SM CLR M06/M08 A2993 RMK AO2 SLP140 I3000 T10611083
                 53006 =
2018-01-18 08:53 METAR KBGR 181353Z 30005KT 9SM FEW250 M07/M08 A2993 RMK AO2 SLP138 T10721083 =
2018-01-18 07:53 METAR KBGR 181253Z 33003KT 6SM MIFG FEW040 M13/M13 A2992 RMK AO2 SLP136 I1000
                 T11281133 =
2018-01-18 06:53 METAR KBGR 181153Z 33007KT 6SM MIFG FEW002 FEW040 M13/M15 A2992 RMK AO2 SLP135
                 4/006 70026 I6001 T11331150 11044 21167 56003 =
2018-01-18 06:17 METAR KBGR 181117Z 00000KT 3SM MIFG FEW002 M16/M17 A2992 RMK AO2 T11611172 =
2018-01-18 05:53 METAR KBGR 181053Z 00000KT 1SM R15/1600V3500FT BR FEW002 M12/M13 A2992 RMK AO2
                 SLP135 I1001 T11221133 =
2018-01-18 05:47 METAR KBGR 181047Z 00000KT 1SM R15/1000V3000FT BR FEW002 M12/M14 A2991 RMK AO2
                 I1001 =
2018-01-18 05:44 METAR KBGR 181044Z 00000KT 1/2SM R15/1000V1600FT FZFG CLR M12/M14 A2992 RMK AO2
                 I1001 T11221139 =
2018-01-18 05:36 METAR KBGR 181036Z 00000KT 1/2SM R15/1000V2600FT FZFG VV002 M11/M12 A2992 RMK
                 AO2 I1001 T11111117 =
2018-01-18 05:22 METAR KBGR 181022Z 00000KT 1SM R15/P6000FT BR SCT002 BKN041 M10/M11 A2991 RMK
                 AO2 I1000 T11001111 =
2018-01-18 05:17 METAR KBGR 181017Z 00000KT 1SM R15/P6000FT BR BKN001 BKN041 M11/M11 A2991 RMK
                 AO2 I1000 T11061111 =
2018-01-18 04:53 METAR KBGR 180953Z 00000KT 10SM FEW002 SCT040 M13/M13 A2992 RMK AO2 SLP135
                 T11281128 =
2018-01-18 04:42 METAR KBGR 180942Z 00000KT 10SM FEW002 FEW040 M10/M11 A2992 RMK AO2 T11001111 =
2018-01-18 03:53 METAR KBGR 180853Z 00000KT 10SM OVC039 M05/M06 A2993 RMK AO2 SLP138 T10501061
                 56020 =
2018-01-18 02:53 METAR KBGR 180753Z 00000KT 10SM OVC041 M06/M06 A2994 RMK AO2 SLP142 T10561061 =
2018-01-18 02:39 METAR KBGR 180739Z 00000KT 10SM SCT028 OVC043 M05/M06 A2994 RMK AO2 T10501061 =

Support USWX by starting your Amazon purchase here.